sensor_id;sensor_type;location;lat;lon;timestamp;pressure;altitude;pressure_sealevel;temperature;humidity
62632;BME280;48703;51.248;-0.546;2022-11-20T00:00:08;100560;;;5.86;86.28
62632;BME280;48703;51.248;-0.546;2022-11-20T00:03:10;100559;;;5.88;86.10
62632;BME280;48703;51.248;-0.546;2022-11-20T00:06:13;100553;;;5.90;85.89
62632;BME280;48703;51.248;-0.546;2022-11-20T00:09:13;100550;;;5.92;85.80
62632;BME280;48703;51.248;-0.546;2022-11-20T00:12:15;100549;;;5.93;85.58
62632;BME280;48703;51.248;-0.546;2022-11-20T00:15:17;100549;;;5.96;85.55
62632;BME280;48703;51.248;-0.546;2022-11-20T00:18:19;100548;;;5.98;85.54
62632;BME280;48703;51.248;-0.546;2022-11-20T00:21:21;100542;;;6.00;85.11
62632;BME280;48703;51.248;-0.546;2022-11-20T00:24:23;100540;;;6.02;85.07
62632;BME280;48703;51.248;-0.546;2022-11-20T00:27:25;100540;;;6.03;84.90
62632;BME280;48703;51.248;-0.546;2022-11-20T00:30:27;100538;;;6.05;84.97
62632;BME280;48703;51.248;-0.546;2022-11-20T00:33:28;100526;;;6.07;84.81
62632;BME280;48703;51.248;-0.546;2022-11-20T00:36:31;100523;;;6.08;84.62
62632;BME280;48703;51.248;-0.546;2022-11-20T00:39:32;100519;;;6.10;84.60
62632;BME280;48703;51.248;-0.546;2022-11-20T00:42:34;100512;;;6.12;84.41
62632;BME280;48703;51.248;-0.546;2022-11-20T00:45:36;100513;;;6.13;84.24
62632;BME280;48703;51.248;-0.546;2022-11-20T00:48:38;100509;;;6.14;84.06
62632;BME280;48703;51.248;-0.546;2022-11-20T00:51:40;100506;;;6.15;83.91
62632;BME280;48703;51.248;-0.546;2022-11-20T00:54:42;100504;;;6.16;83.78
62632;BME280;48703;51.248;-0.546;2022-11-20T00:57:43;100502;;;6.16;83.58
62632;BME280;48703;51.248;-0.546;2022-11-20T01:00:45;100499;;;6.17;83.50
62632;BME280;48703;51.248;-0.546;2022-11-20T01:03:48;100496;;;6.17;83.40
62632;BME280;48703;51.248;-0.546;2022-11-20T01:06:49;100493;;;6.16;83.06
62632;BME280;48703;51.248;-0.546;2022-11-20T01:09:51;100490;;;6.16;83.06
62632;BME280;48703;51.248;-0.546;2022-11-20T01:12:53;100482;;;6.17;82.98
62632;BME280;48703;51.248;-0.546;2022-11-20T01:15:55;100476;;;6.16;82.81
62632;BME280;48703;51.248;-0.546;2022-11-20T01:18:57;100477;;;6.16;82.69
62632;BME280;48703;51.248;-0.546;2022-11-20T01:21:59;100477;;;6.15;82.93
62632;BME280;48703;51.248;-0.546;2022-11-20T01:25:00;100471;;;6.15;82.86
62632;BME280;48703;51.248;-0.546;2022-11-20T01:28:02;100467;;;6.15;82.89
62632;BME280;48703;51.248;-0.546;2022-11-20T01:31:10;100460;;;6.16;82.64
62632;BME280;48703;51.248;-0.546;2022-11-20T01:34:07;100458;;;6.18;82.43
62632;BME280;48703;51.248;-0.546;2022-11-20T01:37:08;100453;;;6.18;82.46
62632;BME280;48703;51.248;-0.546;2022-11-20T01:40:10;100445;;;6.20;82.16
62632;BME280;48703;51.248;-0.546;2022-11-20T01:43:13;100440;;;6.22;81.74
62632;BME280;48703;51.248;-0.546;2022-11-20T01:46:14;100434;;;6.24;81.88
62632;BME280;48703;51.248;-0.546;2022-11-20T01:49:16;100426;;;6.26;81.27
62632;BME280;48703;51.248;-0.546;2022-11-20T01:52:18;100419;;;6.28;81.46
62632;BME280;48703;51.248;-0.546;2022-11-20T01:55:20;100417;;;6.30;81.38
62632;BME280;48703;51.248;-0.546;2022-11-20T01:58:22;100413;;;6.32;81.38
62632;BME280;48703;51.248;-0.546;2022-11-20T02:01:23;100408;;;6.33;81.51
62632;BME280;48703;51.248;-0.546;2022-11-20T02:04:25;100405;;;6.34;81.71
62632;BME280;48703;51.248;-0.546;2022-11-20T02:07:27;100401;;;6.35;81.70
62632;BME280;48703;51.248;-0.546;2022-11-20T02:10:29;100399;;;6.36;81.66
62632;BME280;48703;51.248;-0.546;2022-11-20T02:13:31;100399;;;6.37;81.90
62632;BME280;48703;51.248;-0.546;2022-11-20T02:16:33;100393;;;6.38;81.86
62632;BME280;48703;51.248;-0.546;2022-11-20T02:19:34;100390;;;6.39;82.11
62632;BME280;48703;51.248;-0.546;2022-11-20T02:22:37;100389;;;6.40;82.33
62632;BME280;48703;51.248;-0.546;2022-11-20T02:25:38;100380;;;6.41;82.44
62632;BME280;48703;51.248;-0.546;2022-11-20T02:28:40;100380;;;6.41;82.51
62632;BME280;48703;51.248;-0.546;2022-11-20T02:31:42;100379;;;6.41;83.16
62632;BME280;48703;51.248;-0.546;2022-11-20T02:34:44;100382;;;6.42;83.55
62632;BME280;48703;51.248;-0.546;2022-11-20T02:37:46;100380;;;6.42;83.98
62632;BME280;48703;51.248;-0.546;2022-11-20T02:40:48;100382;;;6.42;84.33
62632;BME280;48703;51.248;-0.546;2022-11-20T02:43:49;100383;;;6.42;84.71
62632;BME280;48703;51.248;-0.546;2022-11-20T02:46:51;100379;;;6.42;85.04
62632;BME280;48703;51.248;-0.546;2022-11-20T02:49:53;100371;;;6.42;85.54
62632;BME280;48703;51.248;-0.546;2022-11-20T02:52:55;100369;;;6.41;86.24
62632;BME280;48703;51.248;-0.546;2022-11-20T02:55:57;100366;;;6.41;86.41
62632;BME280;48703;51.248;-0.546;2022-11-20T02:58:59;100360;;;6.42;86.23
62632;BME280;48703;51.248;-0.546;2022-11-20T03:02:01;100353;;;6.42;86.40
62632;BME280;48703;51.248;-0.546;2022-11-20T03:05:03;100345;;;6.43;86.66
62632;BME280;48703;51.248;-0.546;2022-11-20T03:08:05;100342;;;6.44;86.80
62632;BME280;48703;51.248;-0.546;2022-11-20T03:11:07;100337;;;6.45;87.15
62632;BME280;48703;51.248;-0.546;2022-11-20T03:14:08;100336;;;6.46;87.36
62632;BME280;48703;51.248;-0.546;2022-11-20T03:17:10;100334;;;6.48;87.50
62632;BME280;48703;51.248;-0.546;2022-11-20T03:20:12;100328;;;6.49;87.72
62632;BME280;48703;51.248;-0.546;2022-11-20T03:23:14;100320;;;6.51;87.85
62632;BME280;48703;51.248;-0.546;2022-11-20T03:26:17;100316;;;6.52;88.01
62632;BME280;48703;51.248;-0.546;2022-11-20T03:29:18;100311;;;6.53;87.91
62632;BME280;48703;51.248;-0.546;2022-11-20T03:32:20;100302;;;6.54;88.16
62632;BME280;48703;51.248;-0.546;2022-11-20T03:35:21;100301;;;6.55;88.31
62632;BME280;48703;51.248;-0.546;2022-11-20T03:38:23;100299;;;6.56;88.47
62632;BME280;48703;51.248;-0.546;2022-11-20T03:41:26;100294;;;6.58;88.73
62632;BME280;48703;51.248;-0.546;2022-11-20T03:44:27;100289;;;6.59;88.82
62632;BME280;48703;51.248;-0.546;2022-11-20T03:47:29;100283;;;6.60;88.83
62632;BME280;48703;51.248;-0.546;2022-11-20T03:50:31;100274;;;6.61;88.73
62632;BME280;48703;51.248;-0.546;2022-11-20T03:53:33;100273;;;6.61;89.07
62632;BME280;48703;51.248;-0.546;2022-11-20T03:56:36;100267;;;6.63;89.14
62632;BME280;48703;51.248;-0.546;2022-11-20T03:59:37;100259;;;6.63;89.41
62632;BME280;48703;51.248;-0.546;2022-11-20T04:02:38;100255;;;6.63;89.38
62632;BME280;48703;51.248;-0.546;2022-11-20T04:05:40;100253;;;6.65;89.50
62632;BME280;48703;51.248;-0.546;2022-11-20T04:08:42;100247;;;6.67;89.39
62632;BME280;48703;51.248;-0.546;2022-11-20T04:11:44;100240;;;6.68;89.51
62632;BME280;48703;51.248;-0.546;2022-11-20T04:14:46;100226;;;6.70;89.92
62632;BME280;48703;51.248;-0.546;2022-11-20T04:17:48;100227;;;6.71;89.99
62632;BME280;48703;51.248;-0.546;2022-11-20T04:20:50;100222;;;6.73;90.20
62632;BME280;48703;51.248;-0.546;2022-11-20T04:23:52;100209;;;6.75;90.42
62632;BME280;48703;51.248;-0.546;2022-11-20T04:26:53;100203;;;6.75;90.40
62632;BME280;48703;51.248;-0.546;2022-11-20T04:29:55;100196;;;6.76;90.32
62632;BME280;48703;51.248;-0.546;2022-11-20T04:32:57;100188;;;6.77;90.43
62632;BME280;48703;51.248;-0.546;2022-11-20T04:36:00;100188;;;6.78;90.51
62632;BME280;48703;51.248;-0.546;2022-11-20T04:39:02;100192;;;6.80;90.57
62632;BME280;48703;51.248;-0.546;2022-11-20T04:42:03;100195;;;6.80;90.55
62632;BME280;48703;51.248;-0.546;2022-11-20T04:45:05;100191;;;6.81;90.42
62632;BME280;48703;51.248;-0.546;2022-11-20T04:48:07;100188;;;6.83;90.66
62632;BME280;48703;51.248;-0.546;2022-11-20T04:51:09;100185;;;6.85;91.06
62632;BME280;48703;51.248;-0.546;2022-11-20T04:54:10;100188;;;6.87;91.11
62632;BME280;48703;51.248;-0.546;2022-11-20T04:57:13;100180;;;6.89;91.23
62632;BME280;48703;51.248;-0.546;2022-11-20T05:00:15;100172;;;6.92;91.40
62632;BME280;48703;51.248;-0.546;2022-11-20T05:03:16;100165;;;6.95;91.50
62632;BME280;48703;51.248;-0.546;2022-11-20T05:06:19;100159;;;6.97;91.55
62632;BME280;48703;51.248;-0.546;2022-11-20T05:09:20;100148;;;6.99;91.75
62632;BME280;48703;51.248;-0.546;2022-11-20T05:12:22;100142;;;7.02;91.79
62632;BME280;48703;51.248;-0.546;2022-11-20T05:15:24;100138;;;7.04;91.76
62632;BME280;48703;51.248;-0.546;2022-11-20T05:18:25;100132;;;7.06;91.90
62632;BME280;48703;51.248;-0.546;2022-11-20T05:21:29;100127;;;7.07;92.14
62632;BME280;48703;51.248;-0.546;2022-11-20T05:24:29;100126;;;7.09;92.00
62632;BME280;48703;51.248;-0.546;2022-11-20T05:27:31;100126;;;7.11;92.07
62632;BME280;48703;51.248;-0.546;2022-11-20T05:30:33;100123;;;7.15;92.40
62632;BME280;48703;51.248;-0.546;2022-11-20T05:33:35;100118;;;7.17;92.45
62632;BME280;48703;51.248;-0.546;2022-11-20T05:36:37;100113;;;7.20;92.54
62632;BME280;48703;51.248;-0.546;2022-11-20T05:39:39;100114;;;7.23;92.51
62632;BME280;48703;51.248;-0.546;2022-11-20T05:42:41;100115;;;7.26;92.52
62632;BME280;48703;51.248;-0.546;2022-11-20T05:45:42;100114;;;7.29;92.57
62632;BME280;48703;51.248;-0.546;2022-11-20T05:48:45;100111;;;7.33;92.83
62632;BME280;48703;51.248;-0.546;2022-11-20T05:51:46;100101;;;7.34;92.91
62632;BME280;48703;51.248;-0.546;2022-11-20T05:54:48;100092;;;7.37;92.95
62632;BME280;48703;51.248;-0.546;2022-11-20T05:57:51;100089;;;7.40;92.85
62632;BME280;48703;51.248;-0.546;2022-11-20T06:00:52;100085;;;7.43;92.93
62632;BME280;48703;51.248;-0.546;2022-11-20T06:03:54;100081;;;7.45;92.92
62632;BME280;48703;51.248;-0.546;2022-11-20T06:06:56;100075;;;7.48;92.99
62632;BME280;48703;51.248;-0.546;2022-11-20T06:09:58;100071;;;7.51;93.21
62632;BME280;48703;51.248;-0.546;2022-11-20T06:12:59;100061;;;7.53;93.16
62632;BME280;48703;51.248;-0.546;2022-11-20T06:16:02;100056;;;7.56;93.21
62632;BME280;48703;51.248;-0.546;2022-11-20T06:19:03;100049;;;7.58;93.29
62632;BME280;48703;51.248;-0.546;2022-11-20T06:22:05;100040;;;7.61;93.40
62632;BME280;48703;51.248;-0.546;2022-11-20T06:25:07;100032;;;7.63;93.33
62632;BME280;48703;51.248;-0.546;2022-11-20T06:28:09;100027;;;7.65;93.29
62632;BME280;48703;51.248;-0.546;2022-11-20T06:31:11;100022;;;7.67;93.33
62632;BME280;48703;51.248;-0.546;2022-11-20T06:34:13;100016;;;7.70;93.62
62632;BME280;48703;51.248;-0.546;2022-11-20T06:37:14;100012;;;7.72;93.56
62632;BME280;48703;51.248;-0.546;2022-11-20T06:40:16;100003;;;7.74;93.70
62632;BME280;48703;51.248;-0.546;2022-11-20T06:43:18;99997;;;7.77;93.78
62632;BME280;48703;51.248;-0.546;2022-11-20T06:46:20;99992;;;7.79;93.93
62632;BME280;48703;51.248;-0.546;2022-11-20T06:49:22;99990;;;7.83;93.98
62632;BME280;48703;51.248;-0.546;2022-11-20T06:52:24;100040;;;7.89;94.81
62632;BME280;48703;51.248;-0.546;2022-11-20T06:55:26;100058;;;7.89;94.83
62632;BME280;48703;51.248;-0.546;2022-11-20T06:58:28;100060;;;7.82;93.72
62632;BME280;48703;51.248;-0.546;2022-11-20T07:01:30;100060;;;7.76;93.42
62632;BME280;48703;51.248;-0.546;2022-11-20T07:04:31;100066;;;7.72;93.48
62632;BME280;48703;51.248;-0.546;2022-11-20T07:07:33;100066;;;7.70;93.66
62632;BME280;48703;51.248;-0.546;2022-11-20T07:10:35;100064;;;7.68;93.74
62632;BME280;48703;51.248;-0.546;2022-11-20T07:13:37;100057;;;7.67;93.33
62632;BME280;48703;51.248;-0.546;2022-11-20T07:16:39;100057;;;7.66;93.14
62632;BME280;48703;51.248;-0.546;2022-11-20T07:19:41;100060;;;7.66;93.53
62632;BME280;48703;51.248;-0.546;2022-11-20T07:22:43;100059;;;7.67;93.63
62632;BME280;48703;51.248;-0.546;2022-11-20T07:25:45;100057;;;7.66;93.42
62632;BME280;48703;51.248;-0.546;2022-11-20T07:28:46;100059;;;7.64;93.07
62632;BME280;48703;51.248;-0.546;2022-11-20T07:31:48;100064;;;7.66;93.49
62632;BME280;48703;51.248;-0.546;2022-11-20T07:34:51;100062;;;7.65;92.93
62632;BME280;48703;51.248;-0.546;2022-11-20T07:37:52;100063;;;7.64;93.01
62632;BME280;48703;51.248;-0.546;2022-11-20T07:40:54;100066;;;7.63;92.70
62632;BME280;48703;51.248;-0.546;2022-11-20T07:43:56;100072;;;7.62;92.83
62632;BME280;48703;51.248;-0.546;2022-11-20T07:46:58;100075;;;7.59;93.00
62632;BME280;48703;51.248;-0.546;2022-11-20T07:50:00;100076;;;7.56;93.33
62632;BME280;48703;51.248;-0.546;2022-11-20T07:53:02;100078;;;7.56;93.03
62632;BME280;48703;51.248;-0.546;2022-11-20T07:56:04;100085;;;7.53;93.11
62632;BME280;48703;51.248;-0.546;2022-11-20T07:59:05;100091;;;7.51;92.88
62632;BME280;48703;51.248;-0.546;2022-11-20T08:02:09;100100;;;7.51;93.19
62632;BME280;48703;51.248;-0.546;2022-11-20T08:05:09;100109;;;7.51;93.44
62632;BME280;48703;51.248;-0.546;2022-11-20T08:08:11;100118;;;7.51;93.55
62632;BME280;48703;51.248;-0.546;2022-11-20T08:11:13;100127;;;7.51;93.72
62632;BME280;48703;51.248;-0.546;2022-11-20T08:14:15;100127;;;7.49;93.90
62632;BME280;48703;51.248;-0.546;2022-11-20T08:17:17;100137;;;7.48;94.03
62632;BME280;48703;51.248;-0.546;2022-11-20T08:20:18;100149;;;7.46;93.79
62632;BME280;48703;51.248;-0.546;2022-11-20T08:23:22;100153;;;7.43;93.80
62632;BME280;48703;51.248;-0.546;2022-11-20T08:26:22;100148;;;7.43;93.86
62632;BME280;48703;51.248;-0.546;2022-11-20T08:29:24;100150;;;7.43;93.52
62632;BME280;48703;51.248;-0.546;2022-11-20T08:32:26;100150;;;7.42;93.46
62632;BME280;48703;51.248;-0.546;2022-11-20T08:35:28;100151;;;7.40;93.43
62632;BME280;48703;51.248;-0.546;2022-11-20T08:38:30;100158;;;7.39;93.44
62632;BME280;48703;51.248;-0.546;2022-11-20T08:41:32;100164;;;7.38;93.09
62632;BME280;48703;51.248;-0.546;2022-11-20T08:44:34;100166;;;7.37;93.19
62632;BME280;48703;51.248;-0.546;2022-11-20T08:47:35;100165;;;7.37;93.08
62632;BME280;48703;51.248;-0.546;2022-11-20T08:50:37;100173;;;7.37;93.19
62632;BME280;48703;51.248;-0.546;2022-11-20T08:53:39;100183;;;7.36;93.49
62632;BME280;48703;51.248;-0.546;2022-11-20T08:56:41;100189;;;7.37;93.36
62632;BME280;48703;51.248;-0.546;2022-11-20T08:59:43;100180;;;7.40;93.65
62632;BME280;48703;51.248;-0.546;2022-11-20T09:02:45;100168;;;7.43;93.21
62632;BME280;48703;51.248;-0.546;2022-11-20T09:05:47;100165;;;7.45;93.67
62632;BME280;48703;51.248;-0.546;2022-11-20T09:08:51;100165;;;7.46;93.70
62632;BME280;48703;51.248;-0.546;2022-11-20T09:11:51;100168;;;7.48;93.42
62632;BME280;48703;51.248;-0.546;2022-11-20T09:14:52;100181;;;7.48;93.59
62632;BME280;48703;51.248;-0.546;2022-11-20T09:17:55;100190;;;7.48;93.24
62632;BME280;48703;51.248;-0.546;2022-11-20T09:20:57;100195;;;7.48;93.36
62632;BME280;48703;51.248;-0.546;2022-11-20T09:23:58;100200;;;7.49;93.32
62632;BME280;48703;51.248;-0.546;2022-11-20T09:27:02;100209;;;7.50;93.09
62632;BME280;48703;51.248;-0.546;2022-11-20T09:30:02;100207;;;7.52;93.11
62632;BME280;48703;51.248;-0.546;2022-11-20T09:33:04;100203;;;7.54;93.22
62632;BME280;48703;51.248;-0.546;2022-11-20T09:36:06;100201;;;7.55;93.13
62632;BME280;48703;51.248;-0.546;2022-11-20T09:39:07;100199;;;7.56;93.21
62632;BME280;48703;51.248;-0.546;2022-11-20T09:42:15;100192;;;7.57;93.37
62632;BME280;48703;51.248;-0.546;2022-11-20T09:45:16;100192;;;7.56;92.79
62632;BME280;48703;51.248;-0.546;2022-11-20T09:48:26;100191;;;7.56;92.84
62632;BME280;48703;51.248;-0.546;2022-11-20T09:51:19;100188;;;7.55;92.78
62632;BME280;48703;51.248;-0.546;2022-11-20T09:54:17;100186;;;7.53;92.77
62632;BME280;48703;51.248;-0.546;2022-11-20T09:57:20;100183;;;7.53;92.57
62632;BME280;48703;51.248;-0.546;2022-11-20T10:00:21;100182;;;7.55;92.94
62632;BME280;48703;51.248;-0.546;2022-11-20T10:03:26;100186;;;7.57;92.91
62632;BME280;48703;51.248;-0.546;2022-11-20T10:06:28;100186;;;7.60;92.83
62632;BME280;48703;51.248;-0.546;2022-11-20T10:09:27;100184;;;7.64;92.50
62632;BME280;48703;51.248;-0.546;2022-11-20T10:12:31;100178;;;7.65;92.32
62632;BME280;48703;51.248;-0.546;2022-11-20T10:15:32;100179;;;7.66;91.90
62632;BME280;48703;51.248;-0.546;2022-11-20T10:18:36;100182;;;7.68;91.71
62632;BME280;48703;51.248;-0.546;2022-11-20T10:21:37;100184;;;7.71;92.36
62632;BME280;48703;51.248;-0.546;2022-11-20T10:24:41;100193;;;7.72;92.00
62632;BME280;48703;51.248;-0.546;2022-11-20T10:27:49;100198;;;7.75;91.53
62632;BME280;48703;51.248;-0.546;2022-11-20T10:30:40;100196;;;7.79;91.74
62632;BME280;48703;51.248;-0.546;2022-11-20T10:33:42;100195;;;7.82;91.12
62632;BME280;48703;51.248;-0.546;2022-11-20T10:36:44;100198;;;7.86;91.89
62632;BME280;48703;51.248;-0.546;2022-11-20T10:39:47;100200;;;7.88;91.53
62632;BME280;48703;51.248;-0.546;2022-11-20T10:42:49;100204;;;7.88;91.79
62632;BME280;48703;51.248;-0.546;2022-11-20T10:45:50;100207;;;7.90;91.14
62632;BME280;48703;51.248;-0.546;2022-11-20T10:48:51;100212;;;7.91;90.58
62632;BME280;48703;51.248;-0.546;2022-11-20T10:51:56;100210;;;7.93;89.79
62632;BME280;48703;51.248;-0.546;2022-11-20T10:54:57;100210;;;7.98;89.66
62632;BME280;48703;51.248;-0.546;2022-11-20T10:58:00;100212;;;8.01;89.46
62632;BME280;48703;51.248;-0.546;2022-11-20T11:01:03;100213;;;8.06;89.81
62632;BME280;48703;51.248;-0.546;2022-11-20T11:04:00;100212;;;8.06;89.62
62632;BME280;48703;51.248;-0.546;2022-11-20T11:07:05;100210;;;8.09;89.52
62632;BME280;48703;51.248;-0.546;2022-11-20T11:10:11;100207;;;8.11;89.94
62632;BME280;48703;51.248;-0.546;2022-11-20T11:13:06;100204;;;8.13;89.43
62632;BME280;48703;51.248;-0.546;2022-11-20T11:16:16;100201;;;8.16;89.64
62632;BME280;48703;51.248;-0.546;2022-11-20T11:19:11;100199;;;8.17;89.78
62632;BME280;48703;51.248;-0.546;2022-11-20T11:22:15;100200;;;8.19;89.85
62632;BME280;48703;51.248;-0.546;2022-11-20T11:25:30;100200;;;8.22;88.80
62632;BME280;48703;51.248;-0.546;2022-11-20T11:28:19;100200;;;8.24;90.36
62632;BME280;48703;51.248;-0.546;2022-11-20T11:31:21;100199;;;8.27;90.03
62632;BME280;48703;51.248;-0.546;2022-11-20T11:34:19;100196;;;8.31;87.77
62632;BME280;48703;51.248;-0.546;2022-11-20T11:37:21;100193;;;8.37;88.06
62632;BME280;48703;51.248;-0.546;2022-11-20T11:40:23;100199;;;8.38;88.37
62632;BME280;48703;51.248;-0.546;2022-11-20T11:43:26;100203;;;8.41;88.12
62632;BME280;48703;51.248;-0.546;2022-11-20T11:46:28;100202;;;8.43;88.15
62632;BME280;48703;51.248;-0.546;2022-11-20T11:49:29;100205;;;8.43;86.85
62632;BME280;48703;51.248;-0.546;2022-11-20T11:52:30;100208;;;8.46;87.25
62632;BME280;48703;51.248;-0.546;2022-11-20T11:55:34;100207;;;8.47;87.04
62632;BME280;48703;51.248;-0.546;2022-11-20T11:58:39;100202;;;8.50;86.22
62632;BME280;48703;51.248;-0.546;2022-11-20T12:01:37;100205;;;8.52;85.48
62632;BME280;48703;51.248;-0.546;2022-11-20T12:04:42;100203;;;8.57;83.72
62632;BME280;48703;51.248;-0.546;2022-11-20T12:07:41;100199;;;8.63;84.59
62632;BME280;48703;51.248;-0.546;2022-11-20T12:10:43;100200;;;8.63;86.43
62632;BME280;48703;51.248;-0.546;2022-11-20T12:13:45;100200;;;8.66;84.07
62632;BME280;48703;51.248;-0.546;2022-11-20T12:16:45;100195;;;8.70;82.82
62632;BME280;48703;51.248;-0.546;2022-11-20T12:19:47;100193;;;8.72;81.73
62632;BME280;48703;51.248;-0.546;2022-11-20T12:22:51;100198;;;8.76;82.43
62632;BME280;48703;51.248;-0.546;2022-11-20T12:25:52;100198;;;8.80;82.91
62632;BME280;48703;51.248;-0.546;2022-11-20T12:28:56;100201;;;8.84;80.83
62632;BME280;48703;51.248;-0.546;2022-11-20T12:31:59;100204;;;8.86;83.42
62632;BME280;48703;51.248;-0.546;2022-11-20T12:34:59;100198;;;8.88;82.78
62632;BME280;48703;51.248;-0.546;2022-11-20T12:38:03;100205;;;8.89;82.38
62632;BME280;48703;51.248;-0.546;2022-11-20T12:41:02;100202;;;8.91;83.05
62632;BME280;48703;51.248;-0.546;2022-11-20T12:44:04;100206;;;8.93;79.28
62632;BME280;48703;51.248;-0.546;2022-11-20T12:47:08;100212;;;8.96;80.64
62632;BME280;48703;51.248;-0.546;2022-11-20T12:50:08;100208;;;9.00;82.88
62632;BME280;48703;51.248;-0.546;2022-11-20T12:53:10;100205;;;9.02;81.85
62632;BME280;48703;51.248;-0.546;2022-11-20T12:56:13;100206;;;9.04;81.99
62632;BME280;48703;51.248;-0.546;2022-11-20T12:59:18;100207;;;9.11;79.88
62632;BME280;48703;51.248;-0.546;2022-11-20T13:02:18;100197;;;9.16;80.62
62632;BME280;48703;51.248;-0.546;2022-11-20T13:05:18;100202;;;9.17;80.19
62632;BME280;48703;51.248;-0.546;2022-11-20T13:08:19;100205;;;9.16;81.05
62632;BME280;48703;51.248;-0.546;2022-11-20T13:11:21;100207;;;9.16;78.91
62632;BME280;48703;51.248;-0.546;2022-11-20T13:14:25;100209;;;9.18;81.18
62632;BME280;48703;51.248;-0.546;2022-11-20T13:17:24;100210;;;9.19;81.35
62632;BME280;48703;51.248;-0.546;2022-11-20T13:20:25;100216;;;9.24;81.40
62632;BME280;48703;51.248;-0.546;2022-11-20T13:23:27;100212;;;9.29;79.00
62632;BME280;48703;51.248;-0.546;2022-11-20T13:26:29;100218;;;9.34;81.30
62632;BME280;48703;51.248;-0.546;2022-11-20T13:29:31;100221;;;9.37;78.34
62632;BME280;48703;51.248;-0.546;2022-11-20T13:32:33;100223;;;9.39;79.01
62632;BME280;48703;51.248;-0.546;2022-11-20T13:35:35;100221;;;9.38;78.20
62632;BME280;48703;51.248;-0.546;2022-11-20T13:38:40;100221;;;9.37;79.16
62632;BME280;48703;51.248;-0.546;2022-11-20T13:41:38;100216;;;9.34;79.90
62632;BME280;48703;51.248;-0.546;2022-11-20T13:44:42;100207;;;9.34;80.80
62632;BME280;48703;51.248;-0.546;2022-11-20T13:47:47;100193;;;9.33;79.30
62632;BME280;48703;51.248;-0.546;2022-11-20T13:50:46;100185;;;9.33;79.18
62632;BME280;48703;51.248;-0.546;2022-11-20T13:56:01;100180;;;9.32;81.51
62632;BME280;48703;51.248;-0.546;2022-11-20T13:56:51;100170;;;9.30;82.44
62632;BME280;48703;51.248;-0.546;2022-11-20T13:59:53;100160;;;9.29;82.95
62632;BME280;48703;51.248;-0.546;2022-11-20T14:02:58;100131;;;9.28;83.03
62632;BME280;48703;51.248;-0.546;2022-11-20T14:05:54;100113;;;9.28;82.62
62632;BME280;48703;51.248;-0.546;2022-11-20T14:08:56;100126;;;9.28;83.16
62632;BME280;48703;51.248;-0.546;2022-11-20T14:11:57;100135;;;9.29;83.17
62632;BME280;48703;51.248;-0.546;2022-11-20T14:14:59;100170;;;9.33;84.00
62632;BME280;48703;51.248;-0.546;2022-11-20T14:18:10;100170;;;9.34;83.21
62632;BME280;48703;51.248;-0.546;2022-11-20T14:21:03;100164;;;9.37;82.85
62632;BME280;48703;51.248;-0.546;2022-11-20T14:24:05;100159;;;9.40;82.48
62632;BME280;48703;51.248;-0.546;2022-11-20T14:27:11;100163;;;9.39;82.75
62632;BME280;48703;51.248;-0.546;2022-11-20T14:30:12;100171;;;9.38;82.74
62632;BME280;48703;51.248;-0.546;2022-11-20T14:33:11;100177;;;9.38;82.46
62632;BME280;48703;51.248;-0.546;2022-11-20T14:36:16;100175;;;9.38;82.83
62632;BME280;48703;51.248;-0.546;2022-11-20T14:39:19;100182;;;9.37;82.28
62632;BME280;48703;51.248;-0.546;2022-11-20T14:42:16;100176;;;9.37;82.43
62632;BME280;48703;51.248;-0.546;2022-11-20T14:45:18;100172;;;9.36;82.85
62632;BME280;48703;51.248;-0.546;2022-11-20T14:48:20;100178;;;9.35;81.72
62632;BME280;48703;51.248;-0.546;2022-11-20T14:51:27;100170;;;9.35;82.61
62632;BME280;48703;51.248;-0.546;2022-11-20T14:54:23;100163;;;9.32;82.75
62632;BME280;48703;51.248;-0.546;2022-11-20T14:57:26;100163;;;9.30;82.85
62632;BME280;48703;51.248;-0.546;2022-11-20T15:00:28;100172;;;9.27;83.16
62632;BME280;48703;51.248;-0.546;2022-11-20T15:03:32;100171;;;9.26;83.16
62632;BME280;48703;51.248;-0.546;2022-11-20T15:06:31;100171;;;9.23;83.06
62632;BME280;48703;51.248;-0.546;2022-11-20T15:09:33;100166;;;9.20;83.00
62632;BME280;48703;51.248;-0.546;2022-11-20T15:12:35;100166;;;9.17;82.88
62632;BME280;48703;51.248;-0.546;2022-11-20T15:15:39;100163;;;9.14;83.41
62632;BME280;48703;51.248;-0.546;2022-11-20T15:18:39;100160;;;9.12;83.50
62632;BME280;48703;51.248;-0.546;2022-11-20T15:21:40;100159;;;9.10;83.60
62632;BME280;48703;51.248;-0.546;2022-11-20T15:24:42;100160;;;9.08;82.75
62632;BME280;48703;51.248;-0.546;2022-11-20T15:27:44;100160;;;9.05;83.37
62632;BME280;48703;51.248;-0.546;2022-11-20T15:30:47;100158;;;9.01;83.90
62632;BME280;48703;51.248;-0.546;2022-11-20T15:33:48;100158;;;8.96;82.92
62632;BME280;48703;51.248;-0.546;2022-11-20T15:36:50;100157;;;8.90;83.05
62632;BME280;48703;51.248;-0.546;2022-11-20T15:39:52;100162;;;8.83;82.29
62632;BME280;48703;51.248;-0.546;2022-11-20T15:42:54;100160;;;8.78;82.85
62632;BME280;48703;51.248;-0.546;2022-11-20T15:45:56;100158;;;8.72;82.79
62632;BME280;48703;51.248;-0.546;2022-11-20T15:48:58;100162;;;8.66;82.72
62632;BME280;48703;51.248;-0.546;2022-11-20T15:51:59;100164;;;8.62;83.04
62632;BME280;48703;51.248;-0.546;2022-11-20T15:55:01;100162;;;8.55;82.42
62632;BME280;48703;51.248;-0.546;2022-11-20T15:58:03;100167;;;8.51;83.31
62632;BME280;48703;51.248;-0.546;2022-11-20T16:01:05;100168;;;8.47;83.22
62632;BME280;48703;51.248;-0.546;2022-11-20T16:04:09;100165;;;8.45;83.68
62632;BME280;48703;51.248;-0.546;2022-11-20T16:07:09;100169;;;8.40;83.76
62632;BME280;48703;51.248;-0.546;2022-11-20T16:10:11;100163;;;8.36;83.93
62632;BME280;48703;51.248;-0.546;2022-11-20T16:13:13;100164;;;8.32;84.14
62632;BME280;48703;51.248;-0.546;2022-11-20T16:16:18;100170;;;8.30;84.22
62632;BME280;48703;51.248;-0.546;2022-11-20T16:19:16;100174;;;8.27;83.86
62632;BME280;48703;51.248;-0.546;2022-11-20T16:22:18;100178;;;8.25;84.14
62632;BME280;48703;51.248;-0.546;2022-11-20T16:25:20;100180;;;8.24;84.17
62632;BME280;48703;51.248;-0.546;2022-11-20T16:28:22;100171;;;8.23;84.08